createdAt,value
2023-04-16T00:01:44.981Z,9.70
2023-04-16T00:04:16.849Z,9.70
2023-04-16T00:06:49.318Z,9.71
2023-04-16T00:09:20.210Z,9.70
2023-04-16T00:11:53.824Z,9.69
2023-04-16T00:14:25.146Z,9.63
2023-04-16T00:16:58.943Z,9.61
2023-04-16T00:19:31.150Z,9.63
2023-04-16T00:22:03.717Z,9.65
2023-04-16T00:24:35.465Z,9.64
2023-04-16T00:27:11.732Z,9.65
2023-04-16T00:29:44.892Z,9.68
2023-04-16T00:32:18.192Z,9.67
2023-04-16T00:34:51.541Z,9.66
2023-04-16T00:37:24.797Z,9.67
2023-04-16T00:39:56.795Z,9.67
2023-04-16T00:42:29.016Z,9.64
2023-04-16T00:45:05.313Z,9.61
2023-04-16T00:47:37.789Z,9.59
2023-04-16T00:50:12.923Z,9.55
2023-04-16T00:52:49.879Z,9.55
2023-04-16T00:55:24.332Z,9.54
2023-04-16T00:57:58.486Z,9.53
2023-04-16T01:00:30.887Z,9.51
2023-04-16T01:03:04.304Z,9.52
2023-04-16T01:05:37.591Z,9.50
2023-04-16T01:08:18.290Z,9.50
2023-04-16T01:10:50.949Z,9.50
2023-04-16T01:13:23.909Z,9.47
2023-04-16T01:15:57.236Z,9.47
2023-04-16T01:18:28.954Z,9.48
2023-04-16T01:21:01.948Z,9.47
2023-04-16T01:23:35.008Z,9.47
2023-04-16T01:26:06.828Z,9.49
2023-04-16T01:28:43.846Z,9.51
2023-04-16T01:31:16.015Z,9.49
2023-04-16T01:34:09.859Z,9.46
2023-04-16T01:36:40.514Z,9.47
2023-04-16T01:39:15.207Z,9.46
2023-04-16T01:41:50.899Z,9.46
2023-04-16T01:44:26.642Z,9.41
2023-04-16T01:46:58.577Z,9.39
2023-04-16T01:49:34.942Z,9.38
2023-04-16T01:52:09.238Z,9.38
2023-04-16T01:54:42.778Z,9.39
2023-04-16T01:57:17.141Z,9.36
2023-04-16T01:59:49.877Z,9.32
2023-04-16T02:02:29.551Z,9.31
2023-04-16T02:05:03.617Z,9.31
2023-04-16T02:07:35.475Z,9.31
2023-04-16T02:10:10.617Z,9.32
2023-04-16T02:12:44.898Z,9.32
2023-04-16T02:15:19.749Z,9.33
2023-04-16T02:17:56.850Z,9.37
2023-04-16T02:20:31.913Z,9.35
2023-04-16T02:23:04.890Z,9.34
2023-04-16T02:25:43.390Z,9.32
2023-04-16T02:28:18.990Z,9.31
2023-04-16T02:30:52.750Z,9.29
2023-04-16T02:33:26.706Z,9.29
2023-04-16T02:36:06.634Z,9.28
2023-04-16T02:38:40.734Z,9.26
2023-04-16T02:41:14.830Z,9.26
2023-04-16T02:43:52.554Z,9.29
2023-04-16T02:46:25.083Z,9.26
2023-04-16T02:48:57.933Z,9.25
2023-04-16T02:51:30.063Z,9.22
2023-04-16T02:54:04.678Z,9.21
2023-04-16T02:56:39.714Z,9.25
2023-04-16T02:59:13.695Z,9.23
2023-04-16T03:01:46.884Z,9.24
2023-04-16T03:04:20.017Z,9.24
2023-04-16T03:06:51.937Z,9.22
2023-04-16T03:09:23.484Z,9.20
2023-04-16T03:11:54.747Z,9.19
2023-04-16T03:14:26.220Z,9.21
2023-04-16T03:16:59.915Z,9.24
2023-04-16T03:19:34.445Z,9.27
2023-04-16T03:22:06.918Z,9.27
2023-04-16T03:24:39.446Z,9.26
2023-04-16T03:27:13.705Z,9.26
2023-04-16T03:29:45.896Z,9.24
2023-04-16T03:32:18.915Z,9.24
2023-04-16T03:34:51.844Z,9.24
2023-04-16T03:37:24.497Z,9.25
2023-04-16T03:39:57.778Z,9.26
2023-04-16T03:42:29.827Z,9.29
2023-04-16T03:45:02.425Z,9.27
2023-04-16T03:47:37.137Z,9.27
2023-04-16T03:50:14.703Z,9.25
2023-04-16T03:52:51.833Z,9.22
2023-04-16T03:55:23.697Z,9.22
2023-04-16T03:57:55.837Z,9.21
2023-04-16T04:00:29.044Z,9.20
2023-04-16T04:03:17.364Z,9.18
2023-04-16T04:05:51.383Z,9.21
2023-04-16T04:08:32.977Z,9.22
2023-04-16T04:11:05.407Z,9.22
2023-04-16T04:13:38.850Z,9.22
2023-04-16T04:16:12.746Z,9.24
2023-04-16T04:18:45.637Z,9.27
2023-04-16T04:21:23.083Z,9.27
2023-04-16T04:23:56.202Z,9.22
2023-04-16T04:26:31.610Z,9.22
2023-04-16T04:29:04.715Z,9.22
2023-04-16T04:31:43.192Z,9.19
2023-04-16T04:34:14.737Z,9.17
2023-04-16T04:36:47.619Z,9.16
2023-04-16T04:39:21.356Z,9.13
2023-04-16T04:41:54.198Z,9.11
2023-04-16T04:44:26.185Z,9.12
2023-04-16T04:46:59.104Z,9.10
2023-04-16T04:49:32.406Z,9.10
2023-04-16T04:52:06.018Z,9.07
2023-04-16T04:54:43.872Z,9.05
2023-04-16T04:57:16.922Z,9.05
2023-04-16T04:59:49.060Z,9.02
2023-04-16T05:02:23.028Z,9.03
2023-04-16T05:04:55.924Z,9.02
2023-04-16T05:07:29.154Z,9.05
2023-04-16T05:10:01.951Z,9.09
2023-04-16T05:12:34.888Z,9.10
2023-04-16T05:15:09.046Z,9.10
2023-04-16T05:17:41.731Z,9.12
2023-04-16T05:20:14.575Z,9.14
2023-04-16T05:22:47.038Z,9.17
2023-04-16T05:25:20.865Z,9.20
2023-04-16T05:27:54.002Z,9.22
2023-04-16T05:30:26.635Z,9.22
2023-04-16T05:32:59.703Z,9.20
2023-04-16T05:35:31.626Z,9.21
2023-04-16T05:38:04.653Z,9.18
2023-04-16T05:40:37.120Z,9.18
2023-04-16T05:43:11.118Z,9.19
2023-04-16T05:45:43.644Z,9.18
2023-04-16T05:48:15.355Z,9.19
2023-04-16T05:50:46.132Z,9.18
2023-04-16T05:53:19.370Z,9.18
2023-04-16T05:55:52.270Z,9.16
2023-04-16T05:58:23.424Z,9.17
2023-04-16T06:00:55.058Z,9.17
2023-04-16T06:03:27.460Z,9.14
2023-04-16T06:05:58.256Z,9.17
2023-04-16T06:08:31.947Z,9.19
2023-04-16T06:11:05.563Z,9.19
2023-04-16T06:13:37.497Z,9.17
2023-04-16T06:16:11.435Z,9.16
2023-04-16T06:18:43.292Z,9.18
2023-04-16T06:21:16.292Z,9.17
2023-04-16T06:23:47.296Z,9.17
2023-04-16T06:26:20.202Z,9.22
2023-04-16T06:28:52.636Z,9.24
2023-04-16T06:31:27.258Z,9.25
2023-04-16T06:33:59.022Z,9.23
2023-04-16T06:36:29.320Z,9.25
2023-04-16T06:39:05.543Z,9.27
2023-04-16T06:41:36.787Z,9.29
2023-04-16T06:44:08.472Z,9.30
2023-04-16T06:46:39.739Z,9.31
2023-04-16T06:49:12.596Z,9.31
2023-04-16T06:51:46.000Z,9.28
2023-04-16T06:54:19.035Z,9.30
2023-04-16T06:56:53.280Z,9.30
2023-04-16T06:59:25.198Z,9.29
2023-04-16T07:01:57.963Z,9.33
2023-04-16T07:04:29.441Z,9.34
2023-04-16T07:07:03.065Z,9.31
2023-04-16T07:09:35.487Z,9.29
2023-04-16T07:12:13.629Z,9.31
2023-04-16T07:14:45.573Z,9.29
2023-04-16T07:17:16.549Z,9.31
2023-04-16T07:19:49.780Z,9.34
2023-04-16T07:22:22.426Z,9.36
2023-04-16T07:24:56.224Z,9.37
2023-04-16T07:27:30.135Z,9.37
2023-04-16T07:30:02.464Z,9.36
2023-04-16T07:32:34.190Z,9.34
2023-04-16T07:35:06.812Z,9.34
2023-04-16T07:37:40.083Z,9.34
2023-04-16T07:40:14.928Z,9.32
2023-04-16T07:42:48.023Z,9.32
2023-04-16T07:45:21.079Z,9.33
2023-04-16T07:47:52.030Z,9.36
2023-04-16T07:50:25.140Z,9.35
2023-04-16T07:53:00.251Z,9.32
2023-04-16T07:55:32.854Z,9.35
2023-04-16T07:58:09.066Z,9.39
2023-04-16T08:00:48.829Z,9.42
2023-04-16T08:03:24.782Z,9.40
2023-04-16T08:05:54.698Z,9.39
2023-04-16T08:08:26.774Z,9.37
2023-04-16T08:10:58.659Z,9.35
2023-04-16T08:13:37.978Z,9.39
2023-04-16T08:16:11.762Z,9.41
2023-04-16T08:18:42.376Z,9.44
2023-04-16T08:21:15.323Z,9.49
2023-04-16T08:23:47.063Z,9.47
2023-04-16T08:26:19.061Z,9.49
2023-04-16T08:28:51.679Z,9.54
2023-04-16T08:31:25.597Z,9.56
2023-04-16T08:33:57.598Z,9.53
2023-04-16T08:36:37.957Z,9.53
2023-04-16T08:39:10.557Z,9.51
2023-04-16T08:41:46.224Z,9.46
2023-04-16T08:44:27.487Z,9.47
2023-04-16T08:47:02.847Z,9.56
2023-04-16T08:49:48.939Z,9.58
2023-04-16T08:52:24.685Z,9.62
2023-04-16T08:55:04.362Z,9.64
2023-04-16T08:57:46.662Z,9.66
2023-04-16T09:00:19.457Z,9.69
2023-04-16T09:02:53.346Z,9.74
2023-04-16T09:05:26.259Z,9.71
2023-04-16T09:07:57.730Z,9.73
2023-04-16T09:10:31.218Z,9.76
2023-04-16T09:13:06.029Z,9.80
2023-04-16T09:15:39.158Z,9.79
2023-04-16T09:18:12.969Z,9.79
2023-04-16T09:20:45.984Z,9.84
2023-04-16T09:23:17.412Z,9.87
2023-04-16T09:25:50.385Z,9.82
2023-04-16T09:28:43.318Z,9.83
2023-04-16T09:31:19.697Z,9.87
2023-04-16T09:34:05.960Z,9.89
2023-04-16T09:36:39.336Z,9.92
2023-04-16T09:39:23.034Z,9.96
2023-04-16T09:41:56.404Z,9.98
2023-04-16T09:44:40.280Z,10.04
2023-04-16T09:47:13.102Z,10.10
2023-04-16T09:49:47.324Z,10.19
2023-04-16T09:52:19.769Z,10.23
2023-04-16T09:54:58.132Z,10.27
2023-04-16T09:57:32.417Z,10.28
2023-04-16T10:00:09.004Z,10.29
2023-04-16T10:02:44.540Z,10.35
2023-04-16T10:05:21.460Z,10.35
2023-04-16T10:07:55.361Z,10.38
2023-04-16T10:10:30.182Z,10.40
2023-04-16T10:13:03.813Z,10.41
2023-04-16T10:15:37.587Z,10.44
2023-04-16T10:18:12.113Z,10.50
2023-04-16T10:20:47.268Z,10.58
2023-04-16T10:23:21.694Z,10.63
2023-04-16T10:25:57.490Z,10.69
2023-04-16T10:28:31.456Z,10.76
2023-04-16T10:31:04.980Z,10.80
2023-04-16T10:33:42.324Z,10.84
2023-04-16T10:36:25.886Z,10.85
2023-04-16T10:39:01.032Z,10.84
2023-04-16T10:41:35.161Z,10.81
2023-04-16T10:44:10.716Z,10.86
2023-04-16T10:46:46.177Z,10.90
2023-04-16T10:49:20.698Z,10.97
2023-04-16T10:51:59.976Z,11.00
2023-04-16T10:54:33.292Z,10.98
2023-04-16T10:57:07.271Z,10.97
2023-04-16T10:59:43.208Z,10.97
2023-04-16T11:02:18.074Z,10.95
2023-04-16T11:04:58.609Z,10.93
2023-04-16T11:07:37.986Z,10.92
2023-04-16T11:10:16.292Z,10.88
2023-04-16T11:12:50.292Z,10.87
2023-04-16T11:15:25.354Z,10.92
2023-04-16T11:17:58.663Z,10.95
2023-04-16T11:20:31.542Z,10.94
2023-04-16T11:23:13.250Z,10.96
2023-04-16T11:25:45.774Z,10.98
2023-04-16T11:28:19.113Z,10.96
2023-04-16T11:30:52.807Z,10.95
2023-04-16T11:33:28.341Z,10.93
2023-04-16T11:36:05.314Z,10.94
2023-04-16T11:38:38.410Z,10.96
2023-04-16T11:41:23.814Z,10.96
2023-04-16T11:43:58.258Z,10.99
2023-04-16T11:46:42.759Z,10.96
2023-04-16T11:49:17.667Z,10.92
2023-04-16T11:51:51.510Z,10.92
2023-04-16T11:54:27.262Z,10.92
2023-04-16T11:57:00.181Z,10.91
2023-04-16T11:59:32.770Z,10.93
2023-04-16T12:02:05.596Z,10.90
2023-04-16T12:04:38.570Z,10.90
2023-04-16T12:07:13.756Z,10.91
2023-04-16T12:09:46.855Z,10.88
2023-04-16T12:12:32.234Z,10.86
2023-04-16T12:15:05.658Z,10.83
2023-04-16T12:17:38.998Z,10.78
2023-04-16T12:20:14.528Z,10.77
2023-04-16T12:22:49.206Z,10.76
2023-04-16T12:25:21.727Z,10.78
2023-04-16T12:27:58.144Z,10.77
2023-04-16T12:30:31.069Z,10.76
2023-04-16T12:33:20.849Z,10.77
2023-04-16T12:35:52.704Z,10.78
2023-04-16T12:38:25.772Z,10.78
2023-04-16T12:40:58.484Z,10.75
2023-04-16T12:43:30.914Z,10.70
2023-04-16T12:46:05.614Z,10.73
2023-04-16T12:48:35.715Z,10.79
2023-04-16T12:51:10.398Z,10.81
2023-04-16T12:53:42.629Z,10.68
2023-04-16T12:56:14.136Z,10.65
2023-04-16T12:58:50.211Z,10.63
2023-04-16T13:01:23.003Z,10.68
2023-04-16T13:03:55.555Z,10.70
2023-04-16T13:06:28.113Z,10.62
2023-04-16T13:08:59.040Z,10.62
2023-04-16T13:11:34.613Z,10.67
2023-04-16T13:14:06.434Z,10.75
2023-04-16T13:16:40.087Z,10.79
2023-04-16T13:19:22.424Z,10.76
2023-04-16T13:21:54.471Z,10.68
2023-04-16T13:24:26.375Z,10.67
2023-04-16T13:26:59.446Z,10.58
2023-04-16T13:29:36.757Z,10.56
2023-04-16T13:32:14.103Z,10.57
2023-04-16T13:34:46.886Z,10.57
2023-04-16T13:37:22.134Z,10.61
2023-04-16T13:39:56.444Z,10.61
2023-04-16T13:42:28.704Z,10.56
2023-04-16T13:45:02.037Z,10.53
2023-04-16T13:47:39.483Z,10.45
2023-04-16T13:50:16.754Z,10.42
2023-04-16T13:52:50.823Z,10.44
2023-04-16T13:55:25.504Z,10.47
2023-04-16T13:57:58.953Z,10.50
2023-04-16T14:00:32.513Z,10.54
2023-04-16T14:03:07.453Z,10.58
2023-04-16T14:05:39.480Z,10.58
2023-04-16T14:08:15.283Z,10.54
2023-04-16T14:10:55.837Z,10.51
2023-04-16T14:13:29.195Z,10.41
2023-04-16T14:16:01.927Z,10.36
2023-04-16T14:18:36.311Z,10.36
2023-04-16T14:21:13.092Z,10.41
2023-04-16T14:23:45.882Z,10.45
2023-04-16T14:26:16.924Z,10.45
2023-04-16T14:28:47.597Z,10.45
2023-04-16T14:31:21.760Z,10.48
2023-04-16T14:33:52.620Z,10.51
2023-04-16T14:36:25.249Z,10.54
2023-04-16T14:38:57.748Z,10.56
2023-04-16T14:41:32.332Z,10.57
2023-04-16T14:44:06.508Z,10.54
2023-04-16T14:46:41.161Z,10.49
2023-04-16T14:49:12.511Z,10.47
2023-04-16T14:51:46.179Z,10.44
2023-04-16T14:54:17.002Z,10.36
2023-04-16T14:56:49.473Z,10.37
2023-04-16T14:59:23.075Z,10.41
2023-04-16T15:01:57.078Z,10.45
2023-04-16T15:04:31.606Z,10.52
2023-04-16T15:07:05.339Z,10.50
2023-04-16T15:09:38.121Z,10.47
2023-04-16T15:12:10.484Z,10.49
2023-04-16T15:14:44.321Z,10.54
2023-04-16T15:17:34.272Z,10.58
2023-04-16T15:20:12.907Z,10.62
2023-04-16T15:22:45.325Z,10.62
2023-04-16T15:25:17.483Z,10.68
2023-04-16T15:27:50.084Z,10.70
2023-04-16T15:30:23.542Z,10.68
2023-04-16T15:33:00.280Z,10.64
2023-04-16T15:35:36.389Z,10.64
2023-04-16T15:38:10.693Z,10.61
2023-04-16T15:40:42.869Z,10.57
2023-04-16T15:43:17.154Z,10.49
2023-04-16T15:45:53.274Z,10.51
2023-04-16T15:48:27.382Z,10.54
2023-04-16T15:51:04.312Z,10.57
2023-04-16T15:53:34.888Z,10.58
2023-04-16T15:56:07.699Z,10.56
2023-04-16T15:58:44.185Z,10.54
2023-04-16T16:01:16.287Z,10.51
2023-04-16T16:03:48.429Z,10.52
2023-04-16T16:06:20.889Z,10.54
2023-04-16T16:08:51.133Z,10.48
2023-04-16T16:11:28.121Z,10.45
2023-04-16T16:14:01.112Z,10.38
2023-04-16T16:16:36.012Z,10.38
2023-04-16T16:19:09.625Z,10.36
2023-04-16T16:21:43.864Z,10.37
2023-04-16T16:24:17.032Z,10.32
2023-04-16T16:26:51.557Z,10.26
2023-04-16T16:29:25.142Z,10.19
2023-04-16T16:31:59.003Z,10.12
2023-04-16T16:34:30.960Z,10.06
2023-04-16T16:37:04.162Z,9.95
2023-04-16T16:39:38.634Z,9.92
2023-04-16T16:42:11.254Z,9.90
2023-04-16T16:44:43.127Z,9.83
2023-04-16T16:47:15.938Z,9.78
2023-04-16T16:49:48.039Z,9.73
2023-04-16T16:52:24.710Z,9.75
2023-04-16T16:54:56.873Z,9.71
2023-04-16T16:57:29.369Z,9.71
2023-04-16T17:00:01.411Z,9.72
2023-04-16T17:02:34.423Z,9.71
2023-04-16T17:05:09.582Z,9.68
2023-04-16T17:07:41.827Z,9.66
2023-04-16T17:10:19.726Z,9.68
2023-04-16T17:12:56.568Z,9.70
2023-04-16T17:15:29.578Z,9.69
2023-04-16T17:18:02.939Z,9.66
2023-04-16T17:20:37.158Z,9.64
2023-04-16T17:23:10.603Z,9.68
2023-04-16T17:25:44.203Z,9.73
2023-04-16T17:28:15.627Z,9.78
2023-04-16T17:30:51.450Z,9.80
2023-04-16T17:33:25.004Z,9.81
2023-04-16T17:35:56.959Z,9.81
2023-04-16T17:38:34.084Z,9.76
2023-04-16T17:41:09.765Z,9.69
2023-04-16T17:43:43.607Z,9.67
2023-04-16T17:46:16.434Z,9.68
2023-04-16T17:48:49.741Z,9.65
2023-04-16T17:51:21.333Z,9.58
2023-04-16T17:53:55.669Z,9.51
2023-04-16T17:56:29.336Z,9.50
2023-04-16T17:59:07.264Z,9.46
2023-04-16T18:01:39.904Z,9.47
2023-04-16T18:04:12.242Z,9.50
2023-04-16T18:06:45.762Z,9.46
2023-04-16T18:09:19.921Z,9.43
2023-04-16T18:11:57.124Z,9.44
2023-04-16T18:14:38.191Z,9.44
2023-04-16T18:17:12.529Z,9.47
2023-04-16T18:19:45.194Z,9.46
2023-04-16T18:22:19.415Z,9.45
2023-04-16T18:24:56.922Z,9.45
2023-04-16T18:27:32.556Z,9.46
2023-04-16T18:30:22.920Z,9.46
2023-04-16T18:36:11.334Z,9.45
2023-04-16T18:38:59.407Z,9.43
2023-04-16T18:41:39.108Z,9.44
2023-04-16T18:44:11.485Z,9.45
2023-04-16T18:46:43.900Z,9.43
2023-04-16T18:49:16.675Z,9.41
2023-04-16T18:51:51.867Z,9.38
2023-04-16T18:54:27.643Z,9.39
2023-04-16T18:57:00.882Z,9.41
2023-04-16T18:59:36.142Z,9.41
2023-04-16T19:02:13.197Z,9.37
2023-04-16T19:04:50.413Z,9.38
2023-04-16T19:07:27.421Z,9.41
2023-04-16T19:10:05.381Z,9.38
2023-04-16T19:12:42.951Z,9.37
2023-04-16T19:15:15.742Z,9.34
2023-04-16T19:17:51.046Z,9.30
2023-04-16T19:20:23.315Z,9.27
2023-04-16T19:22:59.583Z,9.30
2023-04-16T19:25:43.425Z,9.28
2023-04-16T19:28:19.292Z,9.25
2023-04-16T19:30:56.408Z,9.26
2023-04-16T19:33:28.675Z,9.24
2023-04-16T19:36:01.339Z,9.22
2023-04-16T19:38:58.650Z,9.18
2023-04-16T19:41:33.764Z,9.17
2023-04-16T19:44:07.503Z,9.18
2023-04-16T19:46:38.676Z,9.19
2023-04-16T19:49:12.576Z,9.19
2023-04-16T19:51:49.215Z,9.21
2023-04-16T19:54:23.653Z,9.17
2023-04-16T19:56:58.817Z,9.14
2023-04-16T19:59:37.998Z,9.16
2023-04-16T20:02:13.102Z,9.18
2023-04-16T20:04:49.717Z,9.12
2023-04-16T20:07:26.471Z,9.12
2023-04-16T20:10:00.063Z,9.15
2023-04-16T20:12:33.646Z,9.15
2023-04-16T20:15:05.389Z,9.16
2023-04-16T20:17:41.091Z,9.18
2023-04-16T20:20:15.324Z,9.19
2023-04-16T20:22:53.607Z,9.22
2023-04-16T20:25:30.752Z,9.21
2023-04-16T20:28:02.692Z,9.22
2023-04-16T20:30:39.481Z,9.22
2023-04-16T20:33:14.898Z,9.20
2023-04-16T20:35:51.766Z,9.19
2023-04-16T20:38:35.645Z,9.18
2023-04-16T20:41:10.057Z,9.22
2023-04-16T20:43:45.776Z,9.25
2023-04-16T20:46:18.905Z,9.23
2023-04-16T20:49:00.375Z,9.26
2023-04-16T20:51:36.768Z,9.28
2023-04-16T20:54:13.757Z,9.27
2023-04-16T20:56:46.544Z,9.27
2023-04-16T20:59:22.049Z,9.22
2023-04-16T21:01:55.086Z,9.13
2023-04-16T21:04:30.870Z,9.08
2023-04-16T21:07:04.769Z,9.04
2023-04-16T21:09:42.124Z,9.01
2023-04-16T21:12:12.759Z,9.00
2023-04-16T21:14:45.506Z,8.97
2023-04-16T21:17:21.193Z,8.95
2023-04-16T21:19:53.815Z,8.99
2023-04-16T21:22:28.604Z,8.94
2023-04-16T21:25:03.823Z,8.91
2023-04-16T21:27:39.550Z,8.91
2023-04-16T21:30:15.869Z,8.92
2023-04-16T21:32:50.178Z,8.94
2023-04-16T21:35:23.247Z,8.91
2023-04-16T21:37:55.952Z,8.91
2023-04-16T21:40:28.744Z,8.94
2023-04-16T21:43:01.492Z,8.94
2023-04-16T21:45:33.956Z,8.96
2023-04-16T21:48:07.185Z,8.90
2023-04-16T21:50:39.832Z,8.83
2023-04-16T21:53:10.896Z,8.85
2023-04-16T21:55:44.719Z,8.88
2023-04-16T21:58:17.894Z,8.90
2023-04-16T22:00:51.370Z,8.90
2023-04-16T22:03:27.776Z,8.89
2023-04-16T22:06:04.423Z,8.86
2023-04-16T22:08:39.564Z,8.81
2023-04-16T22:11:12.792Z,8.85
2023-04-16T22:13:45.899Z,8.84
2023-04-16T22:16:20.696Z,8.82
2023-04-16T22:18:55.549Z,8.78
2023-04-16T22:21:27.274Z,8.78
2023-04-16T22:23:59.689Z,8.76
2023-04-16T22:26:34.957Z,8.69
2023-04-16T22:29:08.991Z,8.68
2023-04-16T22:31:42.164Z,8.68
2023-04-16T22:34:14.568Z,8.66
2023-04-16T22:36:47.727Z,8.63
2023-04-16T22:39:21.322Z,8.56
2023-04-16T22:41:56.062Z,8.51
2023-04-16T22:44:28.790Z,8.51
2023-04-16T22:47:00.365Z,8.48
2023-04-16T22:49:33.408Z,8.47
2023-04-16T22:52:07.653Z,8.44
2023-04-16T22:54:40.641Z,8.45
2023-04-16T22:57:13.182Z,8.45
2023-04-16T22:59:43.644Z,8.45
2023-04-16T23:02:18.760Z,8.45
2023-04-16T23:04:52.678Z,8.47
2023-04-16T23:07:24.811Z,8.39
2023-04-16T23:09:57.208Z,8.36
2023-04-16T23:12:29.313Z,8.37
2023-04-16T23:15:07.811Z,8.34
2023-04-16T23:17:39.890Z,8.25
2023-04-16T23:20:15.708Z,8.23
2023-04-16T23:22:49.461Z,8.28
2023-04-16T23:25:23.736Z,8.28
2023-04-16T23:27:57.727Z,8.22
2023-04-16T23:30:28.476Z,8.19
2023-04-16T23:33:00.605Z,8.18
2023-04-16T23:35:33.934Z,8.15
2023-04-16T23:38:06.054Z,8.11
2023-04-16T23:40:40.619Z,8.10
2023-04-16T23:43:14.813Z,8.08
2023-04-16T23:45:48.043Z,8.05
2023-04-16T23:48:19.763Z,8.06
2023-04-16T23:50:53.084Z,8.07
2023-04-16T23:53:27.481Z,8.04
2023-04-16T23:56:00.593Z,8.02
2023-04-16T23:58:33.232Z,8.02
